sensor_id;sensor_type;location;lat;lon;timestamp;P1;durP1;ratioP1;P2;durP2;ratioP2
32094;SDS011;18608;53.688;10.748;2022-10-16T00:00:39;7.30;;;4.40;;
32094;SDS011;18608;53.688;10.748;2022-10-16T00:03:05;4.20;;;3.80;;
32094;SDS011;18608;53.688;10.748;2022-10-16T00:05:32;8.33;;;4.63;;
32094;SDS011;18608;53.688;10.748;2022-10-16T00:08:02;4.63;;;3.87;;
32094;SDS011;18608;53.688;10.748;2022-10-16T00:10:28;4.90;;;4.20;;
32094;SDS011;18608;53.688;10.748;2022-10-16T00:12:54;8.73;;;4.60;;
32094;SDS011;18608;53.688;10.748;2022-10-16T00:15:20;5.97;;;5.33;;
32094;SDS011;18608;53.688;10.748;2022-10-16T00:17:46;8.10;;;5.10;;
32094;SDS011;18608;53.688;10.748;2022-10-16T00:20:12;10.30;;;5.43;;
32094;SDS011;18608;53.688;10.748;2022-10-16T00:22:37;9.40;;;6.13;;
32094;SDS011;18608;53.688;10.748;2022-10-16T00:25:03;10.80;;;5.83;;
32094;SDS011;18608;53.688;10.748;2022-10-16T00:27:29;12.00;;;6.53;;
32094;SDS011;18608;53.688;10.748;2022-10-16T00:29:55;8.73;;;6.43;;
32094;SDS011;18608;53.688;10.748;2022-10-16T00:32:21;9.23;;;6.10;;
32094;SDS011;18608;53.688;10.748;2022-10-16T00:34:47;11.50;;;6.87;;
32094;SDS011;18608;53.688;10.748;2022-10-16T00:37:13;13.20;;;7.70;;
32094;SDS011;18608;53.688;10.748;2022-10-16T00:39:39;13.13;;;8.00;;
32094;SDS011;18608;53.688;10.748;2022-10-16T00:42:05;9.77;;;7.57;;
32094;SDS011;18608;53.688;10.748;2022-10-16T00:44:44;20.80;;;8.23;;
32094;SDS011;18608;53.688;10.748;2022-10-16T00:47:19;10.50;;;7.33;;
32094;SDS011;18608;53.688;10.748;2022-10-16T00:49:47;8.60;;;6.57;;
32094;SDS011;18608;53.688;10.748;2022-10-16T00:52:14;12.50;;;7.33;;
32094;SDS011;18608;53.688;10.748;2022-10-16T00:54:41;12.70;;;7.00;;
32094;SDS011;18608;53.688;10.748;2022-10-16T00:57:07;10.40;;;6.77;;
32094;SDS011;18608;53.688;10.748;2022-10-16T00:59:34;16.53;;;7.60;;
32094;SDS011;18608;53.688;10.748;2022-10-16T01:02:02;10.30;;;6.40;;
32094;SDS011;18608;53.688;10.748;2022-10-16T01:04:32;6.57;;;5.80;;
32094;SDS011;18608;53.688;10.748;2022-10-16T01:14:55;10.50;;;5.90;;
32094;SDS011;18608;53.688;10.748;2022-10-16T01:28:51;7.77;;;5.47;;
32094;SDS011;18608;53.688;10.748;2022-10-16T01:31:25;7.33;;;5.77;;
32094;SDS011;18608;53.688;10.748;2022-10-16T01:34:05;11.47;;;5.43;;
32094;SDS011;18608;53.688;10.748;2022-10-16T01:36:50;9.43;;;5.57;;
32094;SDS011;18608;53.688;10.748;2022-10-16T01:39:24;8.50;;;6.10;;
32094;SDS011;18608;53.688;10.748;2022-10-16T01:41:58;7.57;;;5.60;;
32094;SDS011;18608;53.688;10.748;2022-10-16T01:44:38;9.20;;;5.03;;
32094;SDS011;18608;53.688;10.748;2022-10-16T01:47:07;12.03;;;5.80;;
32094;SDS011;18608;53.688;10.748;2022-10-16T01:49:35;7.17;;;5.67;;
32094;SDS011;18608;53.688;10.748;2022-10-16T01:52:05;10.93;;;5.20;;
32094;SDS011;18608;53.688;10.748;2022-10-16T01:54:34;9.63;;;5.60;;
32094;SDS011;18608;53.688;10.748;2022-10-16T01:57:03;8.80;;;5.13;;
32094;SDS011;18608;53.688;10.748;2022-10-16T01:59:31;6.27;;;5.10;;
32094;SDS011;18608;53.688;10.748;2022-10-16T02:02:00;12.17;;;5.87;;
32094;SDS011;18608;53.688;10.748;2022-10-16T02:04:34;10.30;;;6.10;;
32094;SDS011;18608;53.688;10.748;2022-10-16T02:07:08;9.93;;;5.87;;
32094;SDS011;18608;53.688;10.748;2022-10-16T02:09:34;7.40;;;4.90;;
32094;SDS011;18608;53.688;10.748;2022-10-16T02:12:03;11.63;;;5.67;;
32094;SDS011;18608;53.688;10.748;2022-10-16T02:14:35;11.00;;;4.90;;
32094;SDS011;18608;53.688;10.748;2022-10-16T02:17:11;5.73;;;5.10;;
32094;SDS011;18608;53.688;10.748;2022-10-16T02:19:38;5.10;;;4.57;;
32094;SDS011;18608;53.688;10.748;2022-10-16T02:22:04;9.33;;;5.10;;
32094;SDS011;18608;53.688;10.748;2022-10-16T02:30:24;5.10;;;4.27;;
32094;SDS011;18608;53.688;10.748;2022-10-16T02:33:07;13.37;;;4.27;;
32094;SDS011;18608;53.688;10.748;2022-10-16T02:35:35;3.70;;;3.10;;
32094;SDS011;18608;53.688;10.748;2022-10-16T02:38:01;7.40;;;3.80;;
32094;SDS011;18608;53.688;10.748;2022-10-16T02:40:28;4.43;;;4.00;;
32094;SDS011;18608;53.688;10.748;2022-10-16T02:42:54;5.97;;;5.20;;
32094;SDS011;18608;53.688;10.748;2022-10-16T02:45:20;9.70;;;4.80;;
32094;SDS011;18608;53.688;10.748;2022-10-16T02:47:47;7.37;;;5.00;;
32094;SDS011;18608;53.688;10.748;2022-10-16T02:50:13;5.93;;;4.50;;
32094;SDS011;18608;53.688;10.748;2022-10-16T02:52:39;6.17;;;4.10;;
32094;SDS011;18608;53.688;10.748;2022-10-16T02:55:05;4.03;;;3.60;;
32094;SDS011;18608;53.688;10.748;2022-10-16T02:57:31;11.40;;;4.27;;
32094;SDS011;18608;53.688;10.748;2022-10-16T02:59:57;4.90;;;4.20;;
32094;SDS011;18608;53.688;10.748;2022-10-16T03:02:24;5.80;;;4.23;;
32094;SDS011;18608;53.688;10.748;2022-10-16T03:04:50;11.57;;;3.43;;
32094;SDS011;18608;53.688;10.748;2022-10-16T03:07:15;4.00;;;3.70;;
32094;SDS011;18608;53.688;10.748;2022-10-16T03:09:41;4.90;;;3.80;;
32094;SDS011;18608;53.688;10.748;2022-10-16T03:12:07;5.80;;;4.30;;
32094;SDS011;18608;53.688;10.748;2022-10-16T03:14:34;5.80;;;3.00;;
32094;SDS011;18608;53.688;10.748;2022-10-16T03:17:00;3.20;;;2.90;;
32094;SDS011;18608;53.688;10.748;2022-10-16T03:19:25;2.90;;;2.70;;
32094;SDS011;18608;53.688;10.748;2022-10-16T03:21:51;3.53;;;3.23;;
32094;SDS011;18608;53.688;10.748;2022-10-16T03:24:16;6.00;;;3.10;;
32094;SDS011;18608;53.688;10.748;2022-10-16T03:26:42;7.87;;;3.07;;
32094;SDS011;18608;53.688;10.748;2022-10-16T03:29:07;5.20;;;2.40;;
32094;SDS011;18608;53.688;10.748;2022-10-16T03:31:33;2.90;;;2.30;;
32094;SDS011;18608;53.688;10.748;2022-10-16T03:33:59;2.83;;;2.60;;
32094;SDS011;18608;53.688;10.748;2022-10-16T03:36:24;2.43;;;2.30;;
32094;SDS011;18608;53.688;10.748;2022-10-16T03:38:50;2.63;;;2.43;;
32094;SDS011;18608;53.688;10.748;2022-10-16T03:41:16;2.87;;;2.60;;
32094;SDS011;18608;53.688;10.748;2022-10-16T03:43:43;3.63;;;2.60;;
32094;SDS011;18608;53.688;10.748;2022-10-16T03:46:08;2.33;;;2.13;;
32094;SDS011;18608;53.688;10.748;2022-10-16T03:48:34;5.67;;;2.80;;
32094;SDS011;18608;53.688;10.748;2022-10-16T03:50:59;6.67;;;2.83;;
32094;SDS011;18608;53.688;10.748;2022-10-16T03:53:25;5.37;;;2.20;;
32094;SDS011;18608;53.688;10.748;2022-10-16T03:55:51;1.97;;;1.87;;
32094;SDS011;18608;53.688;10.748;2022-10-16T03:58:16;2.90;;;2.60;;
32094;SDS011;18608;53.688;10.748;2022-10-16T04:00:42;3.40;;;2.30;;
32094;SDS011;18608;53.688;10.748;2022-10-16T04:03:09;5.57;;;2.20;;
32094;SDS011;18608;53.688;10.748;2022-10-16T04:05:35;5.33;;;2.20;;
32094;SDS011;18608;53.688;10.748;2022-10-16T04:08:01;2.13;;;1.70;;
32094;SDS011;18608;53.688;10.748;2022-10-16T04:10:26;3.70;;;2.70;;
32094;SDS011;18608;53.688;10.748;2022-10-16T04:12:52;5.20;;;2.63;;
32094;SDS011;18608;53.688;10.748;2022-10-16T04:15:20;2.57;;;2.07;;
32094;SDS011;18608;53.688;10.748;2022-10-16T04:17:50;2.80;;;2.60;;
32094;SDS011;18608;53.688;10.748;2022-10-16T04:20:16;2.30;;;1.87;;
32094;SDS011;18608;53.688;10.748;2022-10-16T04:22:41;2.43;;;2.23;;
32094;SDS011;18608;53.688;10.748;2022-10-16T04:25:07;8.13;;;2.33;;
32094;SDS011;18608;53.688;10.748;2022-10-16T04:27:33;10.13;;;2.57;;
32094;SDS011;18608;53.688;10.748;2022-10-16T04:29:59;3.67;;;2.33;;
32094;SDS011;18608;53.688;10.748;2022-10-16T04:32:25;2.17;;;1.97;;
32094;SDS011;18608;53.688;10.748;2022-10-16T04:34:51;4.40;;;2.00;;
32094;SDS011;18608;53.688;10.748;2022-10-16T04:37:17;3.97;;;1.80;;
32094;SDS011;18608;53.688;10.748;2022-10-16T04:39:42;5.87;;;2.20;;
32094;SDS011;18608;53.688;10.748;2022-10-16T04:42:08;2.10;;;2.00;;
32094;SDS011;18608;53.688;10.748;2022-10-16T04:44:34;5.07;;;1.83;;
32094;SDS011;18608;53.688;10.748;2022-10-16T04:46:59;5.27;;;1.50;;
32094;SDS011;18608;53.688;10.748;2022-10-16T04:49:25;5.73;;;2.10;;
32094;SDS011;18608;53.688;10.748;2022-10-16T04:51:51;2.17;;;2.07;;
32094;SDS011;18608;53.688;10.748;2022-10-16T04:54:16;2.10;;;1.90;;
32094;SDS011;18608;53.688;10.748;2022-10-16T04:56:42;4.63;;;1.73;;
32094;SDS011;18608;53.688;10.748;2022-10-16T04:59:12;9.40;;;2.03;;
32094;SDS011;18608;53.688;10.748;2022-10-16T05:01:39;4.03;;;2.60;;
32094;SDS011;18608;53.688;10.748;2022-10-16T05:04:04;2.30;;;2.10;;
32094;SDS011;18608;53.688;10.748;2022-10-16T05:06:30;2.70;;;1.83;;
32094;SDS011;18608;53.688;10.748;2022-10-16T05:08:56;2.63;;;1.90;;
32094;SDS011;18608;53.688;10.748;2022-10-16T05:11:21;4.70;;;2.63;;
32094;SDS011;18608;53.688;10.748;2022-10-16T05:13:47;4.50;;;2.63;;
32094;SDS011;18608;53.688;10.748;2022-10-16T05:16:12;2.53;;;2.43;;
32094;SDS011;18608;53.688;10.748;2022-10-16T05:18:38;5.77;;;2.07;;
32094;SDS011;18608;53.688;10.748;2022-10-16T05:21:04;3.83;;;2.00;;
32094;SDS011;18608;53.688;10.748;2022-10-16T05:23:30;2.40;;;1.90;;
32094;SDS011;18608;53.688;10.748;2022-10-16T05:25:57;7.87;;;2.47;;
32094;SDS011;18608;53.688;10.748;2022-10-16T05:28:25;2.50;;;1.90;;
32094;SDS011;18608;53.688;10.748;2022-10-16T05:30:52;5.87;;;1.90;;
32094;SDS011;18608;53.688;10.748;2022-10-16T05:33:19;6.03;;;2.30;;
32094;SDS011;18608;53.688;10.748;2022-10-16T05:35:46;5.07;;;2.70;;
32094;SDS011;18608;53.688;10.748;2022-10-16T05:38:11;7.83;;;2.10;;
32094;SDS011;18608;53.688;10.748;2022-10-16T05:40:37;2.80;;;2.60;;
32094;SDS011;18608;53.688;10.748;2022-10-16T05:43:03;3.30;;;2.13;;
32094;SDS011;18608;53.688;10.748;2022-10-16T05:45:28;7.33;;;2.50;;
32094;SDS011;18608;53.688;10.748;2022-10-16T05:47:54;12.80;;;2.17;;
32094;SDS011;18608;53.688;10.748;2022-10-16T05:50:19;3.87;;;2.30;;
32094;SDS011;18608;53.688;10.748;2022-10-16T05:52:45;6.57;;;2.17;;
32094;SDS011;18608;53.688;10.748;2022-10-16T05:55:11;2.60;;;2.40;;
32094;SDS011;18608;53.688;10.748;2022-10-16T05:57:36;4.33;;;3.03;;
32094;SDS011;18608;53.688;10.748;2022-10-16T06:00:03;6.73;;;2.30;;
32094;SDS011;18608;53.688;10.748;2022-10-16T06:02:29;4.53;;;2.37;;
32094;SDS011;18608;53.688;10.748;2022-10-16T06:04:54;3.50;;;1.70;;
32094;SDS011;18608;53.688;10.748;2022-10-16T06:07:20;5.37;;;1.93;;
32094;SDS011;18608;53.688;10.748;2022-10-16T06:09:50;17.13;;;2.93;;
32094;SDS011;18608;53.688;10.748;2022-10-16T06:12:16;3.30;;;2.00;;
32094;SDS011;18608;53.688;10.748;2022-10-16T06:14:42;3.17;;;1.93;;
32094;SDS011;18608;53.688;10.748;2022-10-16T06:17:08;6.70;;;2.00;;
32094;SDS011;18608;53.688;10.748;2022-10-16T06:19:33;7.40;;;2.17;;
32094;SDS011;18608;53.688;10.748;2022-10-16T06:21:59;4.90;;;2.57;;
32094;SDS011;18608;53.688;10.748;2022-10-16T06:24:25;2.00;;;1.90;;
32094;SDS011;18608;53.688;10.748;2022-10-16T06:26:50;3.00;;;2.33;;
32094;SDS011;18608;53.688;10.748;2022-10-16T06:29:16;2.60;;;2.30;;
32094;SDS011;18608;53.688;10.748;2022-10-16T06:31:42;2.30;;;1.83;;
32094;SDS011;18608;53.688;10.748;2022-10-16T06:34:09;5.50;;;2.40;;
32094;SDS011;18608;53.688;10.748;2022-10-16T06:36:36;10.80;;;2.77;;
32094;SDS011;18608;53.688;10.748;2022-10-16T06:39:03;2.17;;;2.07;;
32094;SDS011;18608;53.688;10.748;2022-10-16T06:41:30;2.57;;;2.37;;
32094;SDS011;18608;53.688;10.748;2022-10-16T06:43:56;3.70;;;1.70;;
32094;SDS011;18608;53.688;10.748;2022-10-16T06:46:22;5.00;;;2.40;;
32094;SDS011;18608;53.688;10.748;2022-10-16T06:48:50;2.30;;;1.50;;
32094;SDS011;18608;53.688;10.748;2022-10-16T06:51:18;7.13;;;2.33;;
32094;SDS011;18608;53.688;10.748;2022-10-16T06:53:48;3.67;;;2.03;;
32094;SDS011;18608;53.688;10.748;2022-10-16T06:56:17;2.97;;;2.60;;
32094;SDS011;18608;53.688;10.748;2022-10-16T06:58:44;5.20;;;2.30;;
32094;SDS011;18608;53.688;10.748;2022-10-16T07:01:11;1.93;;;1.83;;
32094;SDS011;18608;53.688;10.748;2022-10-16T07:03:39;4.00;;;1.97;;
32094;SDS011;18608;53.688;10.748;2022-10-16T07:06:06;1.83;;;1.60;;
32094;SDS011;18608;53.688;10.748;2022-10-16T07:08:34;5.13;;;2.30;;
32094;SDS011;18608;53.688;10.748;2022-10-16T07:11:01;6.70;;;2.47;;
32094;SDS011;18608;53.688;10.748;2022-10-16T07:13:28;4.87;;;3.53;;
32094;SDS011;18608;53.688;10.748;2022-10-16T07:15:54;5.53;;;2.20;;
32094;SDS011;18608;53.688;10.748;2022-10-16T07:18:20;6.80;;;2.30;;
32094;SDS011;18608;53.688;10.748;2022-10-16T07:20:50;3.87;;;1.77;;
32094;SDS011;18608;53.688;10.748;2022-10-16T07:23:16;9.43;;;2.50;;
32094;SDS011;18608;53.688;10.748;2022-10-16T07:25:42;4.40;;;2.50;;
32094;SDS011;18608;53.688;10.748;2022-10-16T07:28:08;3.93;;;2.50;;
32094;SDS011;18608;53.688;10.748;2022-10-16T07:30:35;3.53;;;2.03;;
32094;SDS011;18608;53.688;10.748;2022-10-16T07:33:02;3.93;;;1.93;;
32094;SDS011;18608;53.688;10.748;2022-10-16T07:35:28;8.53;;;2.40;;
32094;SDS011;18608;53.688;10.748;2022-10-16T07:37:54;5.47;;;2.33;;
32094;SDS011;18608;53.688;10.748;2022-10-16T07:40:20;3.13;;;2.57;;
32094;SDS011;18608;53.688;10.748;2022-10-16T07:42:46;4.60;;;2.30;;
32094;SDS011;18608;53.688;10.748;2022-10-16T07:45:11;3.23;;;1.70;;
32094;SDS011;18608;53.688;10.748;2022-10-16T07:47:37;2.43;;;2.20;;
32094;SDS011;18608;53.688;10.748;2022-10-16T07:50:03;4.30;;;2.10;;
32094;SDS011;18608;53.688;10.748;2022-10-16T07:52:29;8.07;;;2.70;;
32094;SDS011;18608;53.688;10.748;2022-10-16T07:54:55;4.10;;;2.53;;
32094;SDS011;18608;53.688;10.748;2022-10-16T07:57:21;6.40;;;2.20;;
32094;SDS011;18608;53.688;10.748;2022-10-16T07:59:46;3.20;;;2.30;;
32094;SDS011;18608;53.688;10.748;2022-10-16T08:02:12;4.57;;;2.57;;
32094;SDS011;18608;53.688;10.748;2022-10-16T08:04:38;3.50;;;1.80;;
32094;SDS011;18608;53.688;10.748;2022-10-16T08:07:04;2.33;;;2.00;;
32094;SDS011;18608;53.688;10.748;2022-10-16T08:09:31;2.43;;;2.23;;
32094;SDS011;18608;53.688;10.748;2022-10-16T08:11:57;5.27;;;2.10;;
32094;SDS011;18608;53.688;10.748;2022-10-16T08:14:23;6.20;;;2.73;;
32094;SDS011;18608;53.688;10.748;2022-10-16T08:16:49;2.10;;;1.90;;
32094;SDS011;18608;53.688;10.748;2022-10-16T08:19:15;3.70;;;1.80;;
32094;SDS011;18608;53.688;10.748;2022-10-16T08:21:41;8.00;;;2.13;;
32094;SDS011;18608;53.688;10.748;2022-10-16T08:24:07;2.70;;;2.13;;
32094;SDS011;18608;53.688;10.748;2022-10-16T08:26:33;2.20;;;2.00;;
32094;SDS011;18608;53.688;10.748;2022-10-16T08:28:59;2.80;;;1.67;;
32094;SDS011;18608;53.688;10.748;2022-10-16T08:31:25;3.53;;;2.13;;
32094;SDS011;18608;53.688;10.748;2022-10-16T08:33:52;2.47;;;2.00;;
32094;SDS011;18608;53.688;10.748;2022-10-16T08:36:17;3.10;;;2.70;;
32094;SDS011;18608;53.688;10.748;2022-10-16T08:38:43;2.87;;;2.60;;
32094;SDS011;18608;53.688;10.748;2022-10-16T08:49:27;3.30;;;2.23;;
32094;SDS011;18608;53.688;10.748;2022-10-16T08:51:54;1.77;;;1.67;;
32094;SDS011;18608;53.688;10.748;2022-10-16T08:59:36;3.10;;;1.63;;
32094;SDS011;18608;53.688;10.748;2022-10-16T09:02:02;4.47;;;1.87;;
32094;SDS011;18608;53.688;10.748;2022-10-16T09:16:19;7.00;;;2.97;;
32094;SDS011;18608;53.688;10.748;2022-10-16T09:19:03;3.93;;;1.63;;
32094;SDS011;18608;53.688;10.748;2022-10-16T09:21:51;2.90;;;1.80;;
32094;SDS011;18608;53.688;10.748;2022-10-16T09:24:19;5.10;;;1.90;;
32094;SDS011;18608;53.688;10.748;2022-10-16T09:26:46;4.90;;;2.50;;
32094;SDS011;18608;53.688;10.748;2022-10-16T09:29:13;2.43;;;1.90;;
32094;SDS011;18608;53.688;10.748;2022-10-16T09:31:40;5.67;;;1.97;;
32094;SDS011;18608;53.688;10.748;2022-10-16T09:34:06;1.67;;;1.50;;
32094;SDS011;18608;53.688;10.748;2022-10-16T09:36:59;3.47;;;1.70;;
32094;SDS011;18608;53.688;10.748;2022-10-16T09:39:28;3.47;;;1.87;;
32094;SDS011;18608;53.688;10.748;2022-10-16T09:41:53;1.50;;;1.30;;
32094;SDS011;18608;53.688;10.748;2022-10-16T09:46:49;3.33;;;2.23;;
32094;SDS011;18608;53.688;10.748;2022-10-16T09:49:22;2.53;;;1.47;;
32094;SDS011;18608;53.688;10.748;2022-10-16T09:51:50;6.50;;;2.70;;
32094;SDS011;18608;53.688;10.748;2022-10-16T09:56:42;1.97;;;1.33;;
32094;SDS011;18608;53.688;10.748;2022-10-16T09:59:14;2.40;;;1.60;;
32094;SDS011;18608;53.688;10.748;2022-10-16T10:04:07;2.57;;;1.87;;
32094;SDS011;18608;53.688;10.748;2022-10-16T10:06:34;6.40;;;2.00;;
32094;SDS011;18608;53.688;10.748;2022-10-16T10:19:36;2.80;;;1.30;;
32094;SDS011;18608;53.688;10.748;2022-10-16T10:22:13;1.63;;;1.53;;
32094;SDS011;18608;53.688;10.748;2022-10-16T10:27:39;1.40;;;1.30;;
32094;SDS011;18608;53.688;10.748;2022-10-16T10:30:18;1.87;;;1.37;;
32094;SDS011;18608;53.688;10.748;2022-10-16T10:35:48;1.57;;;1.47;;
32094;SDS011;18608;53.688;10.748;2022-10-16T10:46:51;6.63;;;2.10;;
32094;SDS011;18608;53.688;10.748;2022-10-16T10:52:09;2.10;;;1.13;;
32094;SDS011;18608;53.688;10.748;2022-10-16T10:54:51;3.73;;;1.40;;
32094;SDS011;18608;53.688;10.748;2022-10-16T11:06:37;2.70;;;1.37;;
32094;SDS011;18608;53.688;10.748;2022-10-16T11:09:13;2.40;;;1.63;;
32094;SDS011;18608;53.688;10.748;2022-10-16T11:11:51;3.23;;;1.23;;
32094;SDS011;18608;53.688;10.748;2022-10-16T11:17:12;2.90;;;1.10;;
32094;SDS011;18608;53.688;10.748;2022-10-16T11:19:55;3.37;;;0.93;;
32094;SDS011;18608;53.688;10.748;2022-10-16T11:25:12;3.23;;;0.90;;
32094;SDS011;18608;53.688;10.748;2022-10-16T11:30:26;6.70;;;2.40;;
32094;SDS011;18608;53.688;10.748;2022-10-16T11:37:56;2.63;;;1.23;;
32094;SDS011;18608;53.688;10.748;2022-10-16T11:40:42;3.30;;;1.40;;
32094;SDS011;18608;53.688;10.748;2022-10-16T11:43:14;2.03;;;1.00;;
32094;SDS011;18608;53.688;10.748;2022-10-16T11:45:52;4.33;;;0.83;;
32094;SDS011;18608;53.688;10.748;2022-10-16T11:48:35;4.93;;;1.17;;
32094;SDS011;18608;53.688;10.748;2022-10-16T11:54:28;2.20;;;1.13;;
32094;SDS011;18608;53.688;10.748;2022-10-16T11:57:12;7.67;;;1.30;;
32094;SDS011;18608;53.688;10.748;2022-10-16T12:10:28;3.73;;;1.17;;
32094;SDS011;18608;53.688;10.748;2022-10-16T12:12:56;3.43;;;1.40;;
32094;SDS011;18608;53.688;10.748;2022-10-16T12:17:52;2.90;;;1.00;;
32094;SDS011;18608;53.688;10.748;2022-10-16T12:22:52;1.13;;;1.00;;
32094;SDS011;18608;53.688;10.748;2022-10-16T12:25:24;4.60;;;1.03;;
32094;SDS011;18608;53.688;10.748;2022-10-16T12:30:39;3.70;;;1.00;;
32094;SDS011;18608;53.688;10.748;2022-10-16T12:33:15;3.60;;;0.80;;
32094;SDS011;18608;53.688;10.748;2022-10-16T12:35:52;2.60;;;1.10;;
32094;SDS011;18608;53.688;10.748;2022-10-16T12:38:20;1.30;;;1.07;;
32094;SDS011;18608;53.688;10.748;2022-10-16T12:41:03;5.30;;;1.10;;
32094;SDS011;18608;53.688;10.748;2022-10-16T12:46:04;4.53;;;1.27;;
32094;SDS011;18608;53.688;10.748;2022-10-16T12:48:30;1.60;;;1.10;;
32094;SDS011;18608;53.688;10.748;2022-10-16T12:50:55;3.03;;;0.90;;
32094;SDS011;18608;53.688;10.748;2022-10-16T12:53:22;10.23;;;1.53;;
32094;SDS011;18608;53.688;10.748;2022-10-16T13:04:40;14.10;;;1.87;;
32094;SDS011;18608;53.688;10.748;2022-10-16T13:22:22;1.57;;;1.00;;
32094;SDS011;18608;53.688;10.748;2022-10-16T13:27:44;2.50;;;1.07;;
32094;SDS011;18608;53.688;10.748;2022-10-16T13:30:19;1.90;;;1.10;;
32094;SDS011;18608;53.688;10.748;2022-10-16T13:32:59;8.00;;;1.10;;
32094;SDS011;18608;53.688;10.748;2022-10-16T13:35:29;2.07;;;1.20;;
32094;SDS011;18608;53.688;10.748;2022-10-16T13:38:30;2.73;;;1.00;;
32094;SDS011;18608;53.688;10.748;2022-10-16T13:40:57;6.27;;;1.20;;
32094;SDS011;18608;53.688;10.748;2022-10-16T13:43:28;8.10;;;2.20;;
32094;SDS011;18608;53.688;10.748;2022-10-16T13:45:59;2.83;;;1.10;;
32094;SDS011;18608;53.688;10.748;2022-10-16T13:48:25;7.03;;;1.60;;
32094;SDS011;18608;53.688;10.748;2022-10-16T13:50:58;5.30;;;1.00;;
32094;SDS011;18608;53.688;10.748;2022-10-16T13:53:31;2.30;;;1.10;;
32094;SDS011;18608;53.688;10.748;2022-10-16T13:55:57;10.30;;;1.63;;
32094;SDS011;18608;53.688;10.748;2022-10-16T13:58:25;3.93;;;1.90;;
32094;SDS011;18608;53.688;10.748;2022-10-16T14:00:58;10.10;;;1.73;;
32094;SDS011;18608;53.688;10.748;2022-10-16T14:03:26;3.03;;;0.80;;
32094;SDS011;18608;53.688;10.748;2022-10-16T14:05:54;5.83;;;1.70;;
32094;SDS011;18608;53.688;10.748;2022-10-16T14:08:23;5.33;;;1.40;;
32094;SDS011;18608;53.688;10.748;2022-10-16T14:10:51;4.10;;;1.27;;
32094;SDS011;18608;53.688;10.748;2022-10-16T14:13:20;4.30;;;2.30;;
32094;SDS011;18608;53.688;10.748;2022-10-16T14:15:54;7.13;;;2.13;;
32094;SDS011;18608;53.688;10.748;2022-10-16T14:18:24;2.70;;;1.17;;
32094;SDS011;18608;53.688;10.748;2022-10-16T14:20:51;4.50;;;1.50;;
32094;SDS011;18608;53.688;10.748;2022-10-16T14:25:46;5.83;;;1.40;;
32094;SDS011;18608;53.688;10.748;2022-10-16T14:31:43;6.67;;;1.43;;
32094;SDS011;18608;53.688;10.748;2022-10-16T14:33:50;1.13;;;1.00;;
32094;SDS011;18608;53.688;10.748;2022-10-16T14:36:16;2.80;;;0.80;;
32094;SDS011;18608;53.688;10.748;2022-10-16T14:41:26;2.57;;;1.37;;
32094;SDS011;18608;53.688;10.748;2022-10-16T14:43:54;3.97;;;1.63;;
32094;SDS011;18608;53.688;10.748;2022-10-16T14:46:28;3.87;;;1.20;;
32094;SDS011;18608;53.688;10.748;2022-10-16T14:49:04;3.20;;;1.30;;
32094;SDS011;18608;53.688;10.748;2022-10-16T14:51:45;1.43;;;1.07;;
32094;SDS011;18608;53.688;10.748;2022-10-16T14:54:12;1.93;;;1.40;;
32094;SDS011;18608;53.688;10.748;2022-10-16T14:59:24;1.17;;;0.80;;
32094;SDS011;18608;53.688;10.748;2022-10-16T15:02:01;3.97;;;1.30;;
32094;SDS011;18608;53.688;10.748;2022-10-16T15:04:52;4.50;;;1.43;;
32094;SDS011;18608;53.688;10.748;2022-10-16T15:07:17;6.10;;;1.50;;
32094;SDS011;18608;53.688;10.748;2022-10-16T15:09:43;2.40;;;1.10;;
32094;SDS011;18608;53.688;10.748;2022-10-16T15:12:09;1.57;;;1.30;;
32094;SDS011;18608;53.688;10.748;2022-10-16T15:14:34;2.43;;;1.20;;
32094;SDS011;18608;53.688;10.748;2022-10-16T15:17:00;6.10;;;1.20;;
32094;SDS011;18608;53.688;10.748;2022-10-16T15:19:26;5.33;;;1.60;;
32094;SDS011;18608;53.688;10.748;2022-10-16T15:21:51;1.20;;;1.10;;
32094;SDS011;18608;53.688;10.748;2022-10-16T15:24:17;5.17;;;1.50;;
32094;SDS011;18608;53.688;10.748;2022-10-16T15:26:43;1.53;;;1.43;;
32094;SDS011;18608;53.688;10.748;2022-10-16T15:29:11;3.20;;;1.53;;
32094;SDS011;18608;53.688;10.748;2022-10-16T15:31:37;3.00;;;1.20;;
32094;SDS011;18608;53.688;10.748;2022-10-16T15:34:03;8.43;;;2.10;;
32094;SDS011;18608;53.688;10.748;2022-10-16T15:36:33;7.10;;;2.57;;
32094;SDS011;18608;53.688;10.748;2022-10-16T15:39:02;5.07;;;2.57;;
32094;SDS011;18608;53.688;10.748;2022-10-16T15:41:37;10.90;;;4.00;;
32094;SDS011;18608;53.688;10.748;2022-10-16T15:44:03;8.03;;;1.53;;
32094;SDS011;18608;53.688;10.748;2022-10-16T15:46:28;2.77;;;2.20;;
32094;SDS011;18608;53.688;10.748;2022-10-16T15:48:56;3.83;;;2.27;;
32094;SDS011;18608;53.688;10.748;2022-10-16T15:51:23;3.07;;;2.10;;
32094;SDS011;18608;53.688;10.748;2022-10-16T15:53:52;5.20;;;2.37;;
32094;SDS011;18608;53.688;10.748;2022-10-16T15:56:18;3.03;;;1.70;;
32094;SDS011;18608;53.688;10.748;2022-10-16T15:58:44;1.90;;;1.53;;
32094;SDS011;18608;53.688;10.748;2022-10-16T16:01:10;5.37;;;3.03;;
32094;SDS011;18608;53.688;10.748;2022-10-16T16:03:37;3.20;;;1.87;;
32094;SDS011;18608;53.688;10.748;2022-10-16T16:06:06;6.30;;;3.20;;
32094;SDS011;18608;53.688;10.748;2022-10-16T16:08:36;8.40;;;3.50;;
32094;SDS011;18608;53.688;10.748;2022-10-16T16:11:04;5.07;;;3.13;;
32094;SDS011;18608;53.688;10.748;2022-10-16T16:13:37;7.07;;;2.93;;
32094;SDS011;18608;53.688;10.748;2022-10-16T16:16:08;3.20;;;2.30;;
32094;SDS011;18608;53.688;10.748;2022-10-16T16:18:35;6.07;;;3.50;;
32094;SDS011;18608;53.688;10.748;2022-10-16T16:21:01;7.23;;;3.70;;
32094;SDS011;18608;53.688;10.748;2022-10-16T16:23:27;9.03;;;4.90;;
32094;SDS011;18608;53.688;10.748;2022-10-16T16:26:02;9.03;;;5.10;;
32094;SDS011;18608;53.688;10.748;2022-10-16T16:28:46;6.80;;;3.93;;
32094;SDS011;18608;53.688;10.748;2022-10-16T16:31:12;5.47;;;3.50;;
32094;SDS011;18608;53.688;10.748;2022-10-16T16:33:37;5.53;;;2.67;;
32094;SDS011;18608;53.688;10.748;2022-10-16T16:36:04;8.53;;;2.50;;
32094;SDS011;18608;53.688;10.748;2022-10-16T16:38:31;5.30;;;2.27;;
32094;SDS011;18608;53.688;10.748;2022-10-16T16:40:57;9.20;;;3.03;;
32094;SDS011;18608;53.688;10.748;2022-10-16T16:43:26;9.03;;;3.90;;
32094;SDS011;18608;53.688;10.748;2022-10-16T16:45:53;32.90;;;14.93;;
32094;SDS011;18608;53.688;10.748;2022-10-16T16:48:19;21.53;;;11.70;;
32094;SDS011;18608;53.688;10.748;2022-10-16T16:50:46;12.37;;;6.90;;
32094;SDS011;18608;53.688;10.748;2022-10-16T16:53:11;10.47;;;6.23;;
32094;SDS011;18608;53.688;10.748;2022-10-16T16:55:37;7.80;;;4.30;;
32094;SDS011;18608;53.688;10.748;2022-10-16T16:58:02;18.90;;;4.53;;
32094;SDS011;18608;53.688;10.748;2022-10-16T17:00:29;5.23;;;2.67;;
32094;SDS011;18608;53.688;10.748;2022-10-16T17:02:55;6.93;;;2.67;;
32094;SDS011;18608;53.688;10.748;2022-10-16T17:05:22;4.37;;;3.20;;
32094;SDS011;18608;53.688;10.748;2022-10-16T17:07:47;11.50;;;7.43;;
32094;SDS011;18608;53.688;10.748;2022-10-16T17:10:13;7.13;;;5.13;;
32094;SDS011;18608;53.688;10.748;2022-10-16T17:12:39;7.23;;;5.83;;
32094;SDS011;18608;53.688;10.748;2022-10-16T17:15:04;12.20;;;5.90;;
32094;SDS011;18608;53.688;10.748;2022-10-16T17:17:31;6.43;;;4.53;;
32094;SDS011;18608;53.688;10.748;2022-10-16T17:19:56;8.03;;;4.93;;
32094;SDS011;18608;53.688;10.748;2022-10-16T17:22:22;7.43;;;4.80;;
32094;SDS011;18608;53.688;10.748;2022-10-16T17:24:49;8.57;;;3.93;;
32094;SDS011;18608;53.688;10.748;2022-10-16T17:27:17;6.13;;;3.50;;
32094;SDS011;18608;53.688;10.748;2022-10-16T17:29:43;5.43;;;3.63;;